sensor_id;sensor_type;location;lat;lon;timestamp;pressure;altitude;pressure_sealevel;temperature;humidity
55466;BME280;41329;41.594;23.810;2022-12-16T00:01:45;95402.56;;;8.76;82.66
55466;BME280;41329;41.594;23.810;2022-12-16T00:04:10;95404.16;;;8.77;82.62
55466;BME280;41329;41.594;23.810;2022-12-16T00:06:35;95387.34;;;8.67;82.69
55466;BME280;41329;41.594;23.810;2022-12-16T00:09:02;95388.34;;;8.59;83.09
55466;BME280;41329;41.594;23.810;2022-12-16T00:11:28;95377.59;;;8.54;83.02
55466;BME280;41329;41.594;23.810;2022-12-16T00:13:56;95384.13;;;8.65;83.08
55466;BME280;41329;41.594;23.810;2022-12-16T00:16:21;95395.88;;;8.77;82.68
55466;BME280;41329;41.594;23.810;2022-12-16T00:18:47;95394.28;;;8.76;82.47
55466;BME280;41329;41.594;23.810;2022-12-16T00:21:13;95399.59;;;8.85;82.46
55466;BME280;41329;41.594;23.810;2022-12-16T00:23:39;95399.66;;;8.88;82.27
55466;BME280;41329;41.594;23.810;2022-12-16T00:26:06;95410.00;;;8.91;82.36
55466;BME280;41329;41.594;23.810;2022-12-16T00:28:32;95399.66;;;8.88;82.38
55466;BME280;41329;41.594;23.810;2022-12-16T00:30:57;95417.22;;;8.96;82.12
55466;BME280;41329;41.594;23.810;2022-12-16T00:33:24;95410.88;;;8.95;82.14
55466;BME280;41329;41.594;23.810;2022-12-16T00:35:50;95428.31;;;8.99;82.05
55466;BME280;41329;41.594;23.810;2022-12-16T00:38:16;95417.63;;;8.98;81.89
55466;BME280;41329;41.594;23.810;2022-12-16T00:40:42;95411.75;;;8.99;82.05
55466;BME280;41329;41.594;23.810;2022-12-16T00:43:08;95416.63;;;9.06;82.00
55466;BME280;41329;41.594;23.810;2022-12-16T00:45:34;95417.81;;;9.05;82.03
55466;BME280;41329;41.594;23.810;2022-12-16T00:47:59;95413.88;;;9.06;81.91
55466;BME280;41329;41.594;23.810;2022-12-16T00:50:25;95398.31;;;8.98;81.89
55466;BME280;41329;41.594;23.810;2022-12-16T00:52:50;95411.19;;;9.09;81.72
55466;BME280;41329;41.594;23.810;2022-12-16T00:55:16;95398.03;;;9.03;81.83
55466;BME280;41329;41.594;23.810;2022-12-16T00:57:42;95416.81;;;9.13;81.97
55466;BME280;41329;41.594;23.810;2022-12-16T01:00:09;95421.97;;;9.14;82.01
55466;BME280;41329;41.594;23.810;2022-12-16T01:02:39;95420.81;;;9.15;81.97
55466;BME280;41329;41.594;23.810;2022-12-16T01:05:05;95407.81;;;9.16;82.10
55466;BME280;41329;41.594;23.810;2022-12-16T01:07:31;95391.38;;;9.04;81.79
55466;BME280;41329;41.594;23.810;2022-12-16T01:09:56;95410.19;;;9.17;81.90
55466;BME280;41329;41.594;23.810;2022-12-16T01:12:21;95389.84;;;9.06;81.70
55466;BME280;41329;41.594;23.810;2022-12-16T01:14:48;95401.91;;;9.17;81.74
55466;BME280;41329;41.594;23.810;2022-12-16T01:17:14;95402.28;;;9.16;81.80
55466;BME280;41329;41.594;23.810;2022-12-16T01:19:39;95405.47;;;9.18;81.60
55466;BME280;41329;41.594;23.810;2022-12-16T01:22:05;95410.28;;;9.21;81.51
55466;BME280;41329;41.594;23.810;2022-12-16T01:24:30;95408.66;;;9.20;81.62
55466;BME280;41329;41.594;23.810;2022-12-16T01:26:55;95404.66;;;9.17;81.49
55466;BME280;41329;41.594;23.810;2022-12-16T01:29:21;95396.03;;;9.19;81.65
55466;BME280;41329;41.594;23.810;2022-12-16T01:31:47;95393.72;;;9.21;81.91
55466;BME280;41329;41.594;23.810;2022-12-16T01:34:12;95386.44;;;9.13;81.75
55466;BME280;41329;41.594;23.810;2022-12-16T01:36:37;95397.72;;;9.23;81.68
55466;BME280;41329;41.594;23.810;2022-12-16T01:39:03;95395.69;;;9.20;81.72
55466;BME280;41329;41.594;23.810;2022-12-16T01:41:29;95370.31;;;9.15;81.65
55466;BME280;41329;41.594;23.810;2022-12-16T01:44:32;95395.31;;;9.22;81.65
55466;BME280;41329;41.594;23.810;2022-12-16T01:47:01;95390.31;;;9.27;81.54
55466;BME280;41329;41.594;23.810;2022-12-16T01:49:37;95384.28;;;9.22;81.74
55466;BME280;41329;41.594;23.810;2022-12-16T01:52:07;95388.56;;;9.19;81.78
55466;BME280;41329;41.594;23.810;2022-12-16T01:54:35;95380.69;;;9.21;81.83
55466;BME280;41329;41.594;23.810;2022-12-16T01:57:07;95375.84;;;9.15;82.04
55466;BME280;41329;41.594;23.810;2022-12-16T01:59:34;95382.31;;;9.22;82.12
55466;BME280;41329;41.594;23.810;2022-12-16T02:02:01;95371.63;;;9.21;82.29
55466;BME280;41329;41.594;23.810;2022-12-16T02:04:27;95369.66;;;9.21;82.38
55466;BME280;41329;41.594;23.810;2022-12-16T02:06:53;95371.19;;;9.19;82.31
55466;BME280;41329;41.594;23.810;2022-12-16T02:09:19;95373.66;;;9.24;82.10
55466;BME280;41329;41.594;23.810;2022-12-16T02:12:12;95355.22;;;9.09;81.78
55466;BME280;41329;41.594;23.810;2022-12-16T02:31:18;95390.97;;;8.86;82.02
55466;BME280;41329;41.594;23.810;2022-12-16T02:36:50;95385.50;;;8.90;82.05
55466;BME280;41329;41.594;23.810;2022-12-16T02:39:59;95373.25;;;8.87;81.95
55466;BME280;41329;41.594;23.810;2022-12-16T02:42:29;95334.25;;;8.54;82.18
55466;BME280;41329;41.594;23.810;2022-12-16T02:45:11;95379.84;;;8.83;82.21
55466;BME280;41329;41.594;23.810;2022-12-16T02:47:39;95381.81;;;8.82;82.21
55466;BME280;41329;41.594;23.810;2022-12-16T02:50:15;95378.16;;;8.78;82.10
55466;BME280;41329;41.594;23.810;2022-12-16T02:52:42;95381.88;;;8.86;82.18
55466;BME280;41329;41.594;23.810;2022-12-16T02:55:08;95386.25;;;8.87;82.14
55466;BME280;41329;41.594;23.810;2022-12-16T02:57:53;95394.53;;;8.87;82.29
55466;BME280;41329;41.594;23.810;2022-12-16T03:00:24;95383.84;;;8.85;82.13
55466;BME280;41329;41.594;23.810;2022-12-16T03:05:41;95397.00;;;8.92;82.45
55466;BME280;41329;41.594;23.810;2022-12-16T03:08:15;95383.75;;;8.82;82.30
55466;BME280;41329;41.594;23.810;2022-12-16T03:10:50;95393.53;;;8.95;82.36
55466;BME280;41329;41.594;23.810;2022-12-16T03:13:18;95388.81;;;8.95;82.34
55466;BME280;41329;41.594;23.810;2022-12-16T03:15:46;95392.03;;;8.97;82.40
55466;BME280;41329;41.594;23.810;2022-12-16T03:18:14;95390.03;;;8.98;82.38
55466;BME280;41329;41.594;23.810;2022-12-16T03:20:54;95386.56;;;9.01;82.29
55466;BME280;41329;41.594;23.810;2022-12-16T03:23:25;95381.84;;;9.01;82.24
55466;BME280;41329;41.594;23.810;2022-12-16T03:25:56;95380.16;;;8.97;82.23
55466;BME280;41329;41.594;23.810;2022-12-16T03:31:03;95394.38;;;8.99;82.52
55466;BME280;41329;41.594;23.810;2022-12-16T03:33:37;95394.25;;;8.92;82.27
55466;BME280;41329;41.594;23.810;2022-12-16T03:36:10;95386.25;;;8.87;82.61
55466;BME280;41329;41.594;23.810;2022-12-16T03:38:38;95383.50;;;8.87;82.35
55466;BME280;41329;41.594;23.810;2022-12-16T03:41:05;95396.00;;;9.00;82.40
55466;BME280;41329;41.594;23.810;2022-12-16T03:43:31;95372.53;;;8.90;82.05
55466;BME280;41329;41.594;23.810;2022-12-16T03:46:01;95379.47;;;9.00;82.21
55466;BME280;41329;41.594;23.810;2022-12-16T03:48:28;95351.66;;;8.74;82.25
55466;BME280;41329;41.594;23.810;2022-12-16T03:50:55;95390.22;;;9.05;82.26
55466;BME280;41329;41.594;23.810;2022-12-16T03:53:20;95393.78;;;9.05;82.04
55466;BME280;41329;41.594;23.810;2022-12-16T03:55:50;95388.50;;;9.00;82.23
55466;BME280;41329;41.594;23.810;2022-12-16T03:58:16;95368.00;;;8.82;82.35
55466;BME280;41329;41.594;23.810;2022-12-16T04:00:41;95382.78;;;8.74;82.71
55466;BME280;41329;41.594;23.810;2022-12-16T04:03:07;95386.91;;;8.80;82.88
55466;BME280;41329;41.594;23.810;2022-12-16T04:05:32;95396.91;;;8.88;82.93
55466;BME280;41329;41.594;23.810;2022-12-16T04:07:58;95412.03;;;8.94;82.79
55466;BME280;41329;41.594;23.810;2022-12-16T04:10:23;95407.34;;;8.95;82.58
55466;BME280;41329;41.594;23.810;2022-12-16T04:13:08;95408.94;;;8.96;82.72
55466;BME280;41329;41.594;23.810;2022-12-16T04:15:53;95412.94;;;8.98;82.58
55466;BME280;41329;41.594;23.810;2022-12-16T04:18:38;95402.94;;;8.94;82.59
55466;BME280;41329;41.594;23.810;2022-12-16T04:21:23;95405.00;;;8.97;82.71
55466;BME280;41329;41.594;23.810;2022-12-16T04:24:14;95368.66;;;8.76;82.67
55466;BME280;41329;41.594;23.810;2022-12-16T04:26:45;95402.19;;;8.93;82.85
55466;BME280;41329;41.594;23.810;2022-12-16T04:29:29;95391.50;;;8.92;83.05
55466;BME280;41329;41.594;23.810;2022-12-16T04:31:54;95401.81;;;8.95;82.90
55466;BME280;41329;41.594;23.810;2022-12-16T04:34:20;95387.31;;;8.82;82.99
55466;BME280;41329;41.594;23.810;2022-12-16T04:37:01;95399.25;;;8.86;82.94
55466;BME280;41329;41.594;23.810;2022-12-16T04:39:46;95416.22;;;8.88;83.09
55466;BME280;41329;41.594;23.810;2022-12-16T04:42:30;95415.63;;;8.95;82.97
55466;BME280;41329;41.594;23.810;2022-12-16T04:45:15;95425.19;;;9.01;82.90
55466;BME280;41329;41.594;23.810;2022-12-16T04:47:59;95437.75;;;8.98;82.75
55466;BME280;41329;41.594;23.810;2022-12-16T04:50:44;95440.44;;;8.95;82.78
55466;BME280;41329;41.594;23.810;2022-12-16T04:53:28;95449.09;;;8.93;83.04
55466;BME280;41329;41.594;23.810;2022-12-16T04:56:12;95440.81;;;8.93;83.00
55466;BME280;41329;41.594;23.810;2022-12-16T04:58:56;95435.63;;;8.92;83.10
55466;BME280;41329;41.594;23.810;2022-12-16T05:01:40;95453.50;;;8.98;82.98
55466;BME280;41329;41.594;23.810;2022-12-16T05:04:24;95462.66;;;9.02;83.08
55466;BME280;41329;41.594;23.810;2022-12-16T05:07:08;95457.59;;;9.04;82.93
55466;BME280;41329;41.594;23.810;2022-12-16T05:09:52;95441.06;;;9.04;83.00
55466;BME280;41329;41.594;23.810;2022-12-16T05:12:35;95441.84;;;9.04;83.08
55466;BME280;41329;41.594;23.810;2022-12-16T05:15:19;95425.38;;;9.08;83.02
55466;BME280;41329;41.594;23.810;2022-12-16T05:18:11;95429.19;;;9.03;83.05
55466;BME280;41329;41.594;23.810;2022-12-16T05:21:00;95429.41;;;8.95;83.18
55466;BME280;41329;41.594;23.810;2022-12-16T05:23:44;95425.38;;;8.92;83.28
55466;BME280;41329;41.594;23.810;2022-12-16T05:26:28;95449.16;;;8.97;83.43
55466;BME280;41329;41.594;23.810;2022-12-16T05:29:12;95446.75;;;8.95;83.53
55466;BME280;41329;41.594;23.810;2022-12-16T05:31:56;95438.13;;;8.97;83.47
55466;BME280;41329;41.594;23.810;2022-12-16T05:34:40;95450.94;;;9.05;83.40
55466;BME280;41329;41.594;23.810;2022-12-16T05:37:24;95443.34;;;9.02;83.28
55466;BME280;41329;41.594;23.810;2022-12-16T05:40:09;95455.22;;;9.02;83.35
55466;BME280;41329;41.594;23.810;2022-12-16T05:42:53;95446.81;;;8.99;83.64
55466;BME280;41329;41.594;23.810;2022-12-16T05:45:38;95435.47;;;8.85;83.49
55466;BME280;41329;41.594;23.810;2022-12-16T05:48:23;95440.69;;;8.90;83.52
55466;BME280;41329;41.594;23.810;2022-12-16T05:51:06;95453.97;;;9.00;83.51
55466;BME280;41329;41.594;23.810;2022-12-16T05:53:50;95465.00;;;9.00;83.59
55466;BME280;41329;41.594;23.810;2022-12-16T05:56:36;95447.09;;;8.94;83.52
55466;BME280;41329;41.594;23.810;2022-12-16T05:59:20;95437.06;;;8.86;83.73
55466;BME280;41329;41.594;23.810;2022-12-16T06:02:04;95452.63;;;8.94;83.59
55466;BME280;41329;41.594;23.810;2022-12-16T06:04:48;95466.88;;;8.96;83.63
55466;BME280;41329;41.594;23.810;2022-12-16T06:07:32;95466.94;;;8.99;83.68
55466;BME280;41329;41.594;23.810;2022-12-16T06:10:16;95474.06;;;9.00;83.67
55466;BME280;41329;41.594;23.810;2022-12-16T06:13:00;95478.94;;;9.07;83.58
55466;BME280;41329;41.594;23.810;2022-12-16T06:15:45;95477.81;;;9.08;83.54
55466;BME280;41329;41.594;23.810;2022-12-16T06:18:28;95477.81;;;9.08;83.59
55466;BME280;41329;41.594;23.810;2022-12-16T06:21:13;95484.47;;;9.07;83.47
55466;BME280;41329;41.594;23.810;2022-12-16T06:23:56;95486.88;;;9.08;83.51
55466;BME280;41329;41.594;23.810;2022-12-16T06:26:40;95488.03;;;9.07;83.45
55466;BME280;41329;41.594;23.810;2022-12-16T06:29:24;95478.69;;;8.96;83.76
55466;BME280;41329;41.594;23.810;2022-12-16T06:32:08;95466.69;;;8.89;83.66
55466;BME280;41329;41.594;23.810;2022-12-16T06:34:52;95473.81;;;8.90;83.72
55466;BME280;41329;41.594;23.810;2022-12-16T06:37:36;95484.41;;;9.03;83.95
55466;BME280;41329;41.594;23.810;2022-12-16T06:40:20;95483.44;;;8.96;84.17
55466;BME280;41329;41.594;23.810;2022-12-16T06:43:04;95465.28;;;8.79;84.40
55466;BME280;41329;41.594;23.810;2022-12-16T06:45:48;95497.38;;;9.03;84.66
55466;BME280;41329;41.594;23.810;2022-12-16T06:48:32;95502.28;;;9.09;84.69
55466;BME280;41329;41.594;23.810;2022-12-16T06:51:15;95519.38;;;9.15;84.94
55466;BME280;41329;41.594;23.810;2022-12-16T06:53:59;95495.63;;;8.95;84.88
55466;BME280;41329;41.594;23.810;2022-12-16T06:56:43;95501.50;;;9.09;84.75
55466;BME280;41329;41.594;23.810;2022-12-16T06:59:27;95501.50;;;9.09;84.84
55466;BME280;41329;41.594;23.810;2022-12-16T07:02:22;95526.50;;;9.16;84.76
55466;BME280;41329;41.594;23.810;2022-12-16T07:05:06;95518.06;;;9.09;84.67
55466;BME280;41329;41.594;23.810;2022-12-16T07:07:50;95524.09;;;9.14;84.75
55466;BME280;41329;41.594;23.810;2022-12-16T07:10:34;95516.72;;;9.18;84.61
55466;BME280;41329;41.594;23.810;2022-12-16T07:13:18;95523.19;;;9.26;84.73
55466;BME280;41329;41.594;23.810;2022-12-16T07:16:02;95526.84;;;9.30;84.96
55466;BME280;41329;41.594;23.810;2022-12-16T07:18:46;95529.69;;;9.33;84.98
55466;BME280;41329;41.594;23.810;2022-12-16T07:21:30;95518.72;;;9.37;84.96
55466;BME280;41329;41.594;23.810;2022-12-16T07:24:14;95515.69;;;9.42;84.90
55466;BME280;41329;41.594;23.810;2022-12-16T07:26:58;95513.81;;;9.46;84.94
55466;BME280;41329;41.594;23.810;2022-12-16T07:29:42;95515.97;;;9.37;84.83
55466;BME280;41329;41.594;23.810;2022-12-16T07:32:26;95535.44;;;9.44;84.99
55466;BME280;41329;41.594;23.810;2022-12-16T07:35:10;95523.22;;;9.45;84.77
55466;BME280;41329;41.594;23.810;2022-12-16T07:37:54;95516.47;;;9.42;85.07
55466;BME280;41329;41.594;23.810;2022-12-16T07:40:37;95523.84;;;9.54;85.11
55466;BME280;41329;41.594;23.810;2022-12-16T07:43:21;95532.38;;;9.64;85.21
55466;BME280;41329;41.594;23.810;2022-12-16T07:46:05;95530.50;;;9.68;85.09
55466;BME280;41329;41.594;23.810;2022-12-16T07:48:49;95515.00;;;9.64;85.16
55466;BME280;41329;41.594;23.810;2022-12-16T07:51:33;95522.28;;;9.72;84.79
55466;BME280;41329;41.594;23.810;2022-12-16T07:54:17;95524.41;;;9.78;84.49
55466;BME280;41329;41.594;23.810;2022-12-16T07:57:01;95518.88;;;9.78;84.43
55466;BME280;41329;41.594;23.810;2022-12-16T07:59:45;95527.09;;;9.75;84.26
55466;BME280;41329;41.594;23.810;2022-12-16T08:02:29;95527.09;;;9.75;84.16
55466;BME280;41329;41.594;23.810;2022-12-16T08:05:13;95523.88;;;9.73;84.00
55466;BME280;41329;41.594;23.810;2022-12-16T08:07:57;95532.63;;;9.75;84.03
55466;BME280;41329;41.594;23.810;2022-12-16T08:10:41;95522.81;;;9.77;83.90
55466;BME280;41329;41.594;23.810;2022-12-16T08:13:25;95525.28;;;9.82;84.24
55466;BME280;41329;41.594;23.810;2022-12-16T08:16:09;95526.50;;;9.85;84.28
55466;BME280;41329;41.594;23.810;2022-12-16T08:18:53;95534.09;;;9.88;84.25
55466;BME280;41329;41.594;23.810;2022-12-16T08:21:37;95540.84;;;9.90;84.30
55466;BME280;41329;41.594;23.810;2022-12-16T08:24:21;95539.16;;;9.86;84.13
55466;BME280;41329;41.594;23.810;2022-12-16T08:27:05;95539.16;;;9.86;84.14
55466;BME280;41329;41.594;23.810;2022-12-16T08:29:49;95512.31;;;9.67;84.41
55466;BME280;41329;41.594;23.810;2022-12-16T08:32:33;95544.09;;;9.77;84.56
55466;BME280;41329;41.594;23.810;2022-12-16T08:35:17;95527.81;;;9.72;84.59
55466;BME280;41329;41.594;23.810;2022-12-16T08:38:01;95544.69;;;9.86;84.69
55466;BME280;41329;41.594;23.810;2022-12-16T08:40:45;95517.13;;;9.70;84.77
55466;BME280;41329;41.594;23.810;2022-12-16T08:43:30;95533.63;;;9.86;84.68
55466;BME280;41329;41.594;23.810;2022-12-16T08:46:15;95535.22;;;9.87;84.77
55466;BME280;41329;41.594;23.810;2022-12-16T08:48:59;95521.22;;;9.61;84.92
55466;BME280;41329;41.594;23.810;2022-12-16T08:51:42;95533.41;;;9.75;85.41
55466;BME280;41329;41.594;23.810;2022-12-16T08:54:26;95537.41;;;9.78;85.39
55466;BME280;41329;41.594;23.810;2022-12-16T08:57:10;95523.53;;;9.74;85.46
55466;BME280;41329;41.594;23.810;2022-12-16T09:00:09;95499.34;;;9.52;86.31
55466;BME280;41329;41.594;23.810;2022-12-16T09:02:59;95494.38;;;9.42;86.82
55466;BME280;41329;41.594;23.810;2022-12-16T09:05:43;95496.34;;;9.42;87.20
55466;BME280;41329;41.594;23.810;2022-12-16T09:08:27;95511.63;;;9.55;87.26
55466;BME280;41329;41.594;23.810;2022-12-16T09:11:11;95508.53;;;9.56;87.37
55466;BME280;41329;41.594;23.810;2022-12-16T09:13:55;95493.09;;;9.55;87.41
55466;BME280;41329;41.594;23.810;2022-12-16T09:16:39;95490.72;;;9.54;87.06
55466;BME280;41329;41.594;23.810;2022-12-16T09:19:23;95492.19;;;9.32;87.94
55466;BME280;41329;41.594;23.810;2022-12-16T09:22:07;95490.53;;;9.47;87.94
55466;BME280;41329;41.594;23.810;2022-12-16T09:24:51;95489.91;;;9.53;87.82
55466;BME280;41329;41.594;23.810;2022-12-16T09:27:35;95487.66;;;9.59;87.16
55466;BME280;41329;41.594;23.810;2022-12-16T09:30:19;95467.50;;;9.39;88.12
55466;BME280;41329;41.594;23.810;2022-12-16T09:33:03;95483.84;;;9.48;88.70
55466;BME280;41329;41.594;23.810;2022-12-16T09:35:47;95492.66;;;9.53;88.29
55466;BME280;41329;41.594;23.810;2022-12-16T09:38:31;95490.78;;;9.57;87.78
55466;BME280;41329;41.594;23.810;2022-12-16T09:41:42;95483.44;;;9.65;87.65
55466;BME280;41329;41.594;23.810;2022-12-16T09:50:51;95481.63;;;9.72;86.47
55466;BME280;41329;41.594;23.810;2022-12-16T09:53:36;95475.88;;;9.62;86.51
55466;BME280;41329;41.594;23.810;2022-12-16T09:56:30;95475.72;;;9.74;86.56
55466;BME280;41329;41.594;23.810;2022-12-16T09:59:20;95474.22;;;9.76;86.34
55466;BME280;41329;41.594;23.810;2022-12-16T10:02:10;95464.69;;;9.74;86.87
55466;BME280;41329;41.594;23.810;2022-12-16T10:04:54;95458.56;;;9.65;86.43
55466;BME280;41329;41.594;23.810;2022-12-16T10:07:55;95472.09;;;9.70;86.61
55466;BME280;41329;41.594;23.810;2022-12-16T10:10:56;95460.63;;;9.68;86.77
55466;BME280;41329;41.594;23.810;2022-12-16T10:25:35;95456.50;;;9.77;87.50
55466;BME280;41329;41.594;23.810;2022-12-16T10:28:43;95463.97;;;9.77;87.31
55466;BME280;41329;41.594;23.810;2022-12-16T10:31:28;95452.34;;;9.68;87.11
55466;BME280;41329;41.594;23.810;2022-12-16T10:34:20;95442.66;;;9.77;87.17
55466;BME280;41329;41.594;23.810;2022-12-16T10:37:15;95440.19;;;9.72;87.69
55466;BME280;41329;41.594;23.810;2022-12-16T10:40:01;95433.56;;;9.77;87.44
55466;BME280;41329;41.594;23.810;2022-12-16T10:43:01;95426.75;;;9.71;87.60
55466;BME280;41329;41.594;23.810;2022-12-16T10:45:49;95433.00;;;9.68;87.76
55466;BME280;41329;41.594;23.810;2022-12-16T10:48:35;95434.09;;;9.82;87.54
55466;BME280;41329;41.594;23.810;2022-12-16T10:51:21;95427.38;;;9.83;87.10
55466;BME280;41329;41.594;23.810;2022-12-16T10:54:31;95408.75;;;9.80;86.98
55466;BME280;41329;41.594;23.810;2022-12-16T10:57:40;95421.78;;;9.99;86.59
55466;BME280;41329;41.594;23.810;2022-12-16T11:03:27;95426.22;;;9.84;87.18
55466;BME280;41329;41.594;23.810;2022-12-16T11:06:18;95407.38;;;9.90;87.11
55466;BME280;41329;41.594;23.810;2022-12-16T11:12:20;95428.28;;;10.06;86.28
55466;BME280;41329;41.594;23.810;2022-12-16T11:15:22;95419.09;;;10.02;85.97
55466;BME280;41329;41.594;23.810;2022-12-16T11:18:18;95433.88;;;10.10;85.63
55466;BME280;41329;41.594;23.810;2022-12-16T11:24:19;95424.72;;;10.06;85.64
55466;BME280;41329;41.594;23.810;2022-12-16T11:27:05;95418.50;;;10.12;85.72
55466;BME280;41329;41.594;23.810;2022-12-16T11:29:58;95415.25;;;10.07;86.43
55466;BME280;41329;41.594;23.810;2022-12-16T11:32:54;95416.91;;;10.11;86.13
55466;BME280;41329;41.594;23.810;2022-12-16T11:35:43;95418.50;;;10.12;86.47
55466;BME280;41329;41.594;23.810;2022-12-16T11:38:41;95420.97;;;10.17;86.67
55466;BME280;41329;41.594;23.810;2022-12-16T11:41:32;95426.03;;;10.34;86.79
55466;BME280;41329;41.594;23.810;2022-12-16T11:44:21;95422.59;;;10.41;86.40
55466;BME280;41329;41.594;23.810;2022-12-16T11:47:36;95424.75;;;10.51;85.91
55466;BME280;41329;41.594;23.810;2022-12-16T11:50:25;95429.06;;;10.48;85.26
55466;BME280;41329;41.594;23.810;2022-12-16T11:53:29;95432.19;;;10.47;85.00
55466;BME280;41329;41.594;23.810;2022-12-16T11:56:19;95415.28;;;10.52;84.77
55466;BME280;41329;41.594;23.810;2022-12-16T11:59:33;95415.91;;;10.42;84.81
55466;BME280;41329;41.594;23.810;2022-12-16T12:08:58;95413.69;;;10.28;86.08
55466;BME280;41329;41.594;23.810;2022-12-16T12:14:46;95381.84;;;10.15;85.64
55466;BME280;41329;41.594;23.810;2022-12-16T12:26:35;95412.19;;;10.57;85.08
55466;BME280;41329;41.594;23.810;2022-12-16T12:33:05;95411.16;;;10.65;85.00
55466;BME280;41329;41.594;23.810;2022-12-16T12:35:54;95413.88;;;10.61;84.85
55466;BME280;41329;41.594;23.810;2022-12-16T12:39:00;95360.00;;;10.33;84.92
55466;BME280;41329;41.594;23.810;2022-12-16T12:45:16;95406.84;;;10.67;84.47
55466;BME280;41329;41.594;23.810;2022-12-16T12:48:25;95410.53;;;10.75;84.77
55466;BME280;41329;41.594;23.810;2022-12-16T12:51:21;95410.91;;;10.73;84.57
55466;BME280;41329;41.594;23.810;2022-12-16T12:57:07;95396.59;;;10.68;83.86
55466;BME280;41329;41.594;23.810;2022-12-16T13:05:35;95409.00;;;10.77;83.92
55466;BME280;41329;41.594;23.810;2022-12-16T13:11:21;95397.63;;;10.82;83.85
55466;BME280;41329;41.594;23.810;2022-12-16T13:18:19;95403.94;;;10.83;83.94
55466;BME280;41329;41.594;23.810;2022-12-16T13:20:58;95403.50;;;10.81;83.81
55466;BME280;41329;41.594;23.810;2022-12-16T13:23:45;95401.59;;;10.85;83.55
55466;BME280;41329;41.594;23.810;2022-12-16T13:26:31;95407.13;;;10.85;83.72
55466;BME280;41329;41.594;23.810;2022-12-16T13:29:30;95388.44;;;10.78;83.62
55466;BME280;41329;41.594;23.810;2022-12-16T13:32:23;95381.25;;;10.74;83.58
55466;BME280;41329;41.594;23.810;2022-12-16T13:38:02;95398.94;;;10.92;83.50
55466;BME280;41329;41.594;23.810;2022-12-16T13:43:55;95413.09;;;10.87;83.74
55466;BME280;41329;41.594;23.810;2022-12-16T13:46:48;95411.44;;;10.82;84.01
55466;BME280;41329;41.594;23.810;2022-12-16T13:52:17;95418.13;;;10.81;83.83
55466;BME280;41329;41.594;23.810;2022-12-16T13:55:16;95414.72;;;10.88;83.88
55466;BME280;41329;41.594;23.810;2022-12-16T13:58:05;95397.16;;;10.80;83.65
55466;BME280;41329;41.594;23.810;2022-12-16T14:01:04;95415.53;;;10.92;83.58
55466;BME280;41329;41.594;23.810;2022-12-16T14:03:51;95413.16;;;10.90;83.40
55466;BME280;41329;41.594;23.810;2022-12-16T14:06:36;95403.63;;;10.88;83.46
55466;BME280;41329;41.594;23.810;2022-12-16T14:09:34;95414.31;;;10.89;83.42
55466;BME280;41329;41.594;23.810;2022-12-16T14:21:46;95386.78;;;10.74;83.38
55466;BME280;41329;41.594;23.810;2022-12-16T14:24:33;95416.31;;;10.89;83.66
55466;BME280;41329;41.594;23.810;2022-12-16T14:27:19;95431.84;;;10.97;83.58
55466;BME280;41329;41.594;23.810;2022-12-16T14:30:24;95401.47;;;10.78;83.40
55466;BME280;41329;41.594;23.810;2022-12-16T14:35:59;95441.88;;;11.05;83.54
55466;BME280;41329;41.594;23.810;2022-12-16T14:38:47;95442.59;;;11.02;83.74
55466;BME280;41329;41.594;23.810;2022-12-16T14:41:31;95433.50;;;11.01;84.05
55466;BME280;41329;41.594;23.810;2022-12-16T14:44:18;95433.97;;;11.07;83.94
55466;BME280;41329;41.594;23.810;2022-12-16T14:47:03;95431.53;;;11.02;84.00
55466;BME280;41329;41.594;23.810;2022-12-16T14:49:49;95437.28;;;10.90;84.55
55466;BME280;41329;41.594;23.810;2022-12-16T14:52:38;95438.97;;;10.98;84.41
55466;BME280;41329;41.594;23.810;2022-12-16T14:55:27;95389.34;;;10.60;84.49
55466;BME280;41329;41.594;23.810;2022-12-16T15:01:09;95452.81;;;10.98;84.70
55466;BME280;41329;41.594;23.810;2022-12-16T15:03:56;95445.31;;;10.98;84.36
55466;BME280;41329;41.594;23.810;2022-12-16T15:06:42;95455.22;;;10.99;84.37
55466;BME280;41329;41.594;23.810;2022-12-16T15:09:49;95459.53;;;10.97;83.99
55466;BME280;41329;41.594;23.810;2022-12-16T15:12:38;95455.41;;;10.87;84.27
55466;BME280;41329;41.594;23.810;2022-12-16T15:15:43;95461.19;;;10.79;84.70
55466;BME280;41329;41.594;23.810;2022-12-16T15:18:36;95456.47;;;10.79;85.01
55466;BME280;41329;41.594;23.810;2022-12-16T15:21:21;95459.66;;;10.81;84.86
55466;BME280;41329;41.594;23.810;2022-12-16T15:24:09;95459.19;;;10.76;84.90
55466;BME280;41329;41.594;23.810;2022-12-16T15:29:56;95465.09;;;10.74;84.90
55466;BME280;41329;41.594;23.810;2022-12-16T15:32:41;95470.53;;;10.71;85.20
55466;BME280;41329;41.594;23.810;2022-12-16T15:35:33;95468.22;;;10.73;85.25
55466;BME280;41329;41.594;23.810;2022-12-16T15:38:27;95460.47;;;10.59;85.52
55466;BME280;41329;41.594;23.810;2022-12-16T15:41:34;95465.94;;;10.56;86.18
55466;BME280;41329;41.594;23.810;2022-12-16T15:44:20;95466.84;;;10.63;86.11
55466;BME280;41329;41.594;23.810;2022-12-16T15:47:15;95457.69;;;10.59;86.15
55466;BME280;41329;41.594;23.810;2022-12-16T15:50:02;95446.56;;;10.33;86.53
55466;BME280;41329;41.594;23.810;2022-12-16T15:52:47;95466.81;;;10.60;86.53
55466;BME280;41329;41.594;23.810;2022-12-16T15:55:36;95466.13;;;10.66;86.05
55466;BME280;41329;41.594;23.810;2022-12-16T15:58:29;95468.94;;;10.70;85.79
55466;BME280;41329;41.594;23.810;2022-12-16T16:01:16;95465.00;;;10.71;85.76
55466;BME280;41329;41.594;23.810;2022-12-16T16:04:02;95462.19;;;10.67;85.67
55466;BME280;41329;41.594;23.810;2022-12-16T16:06:51;95464.03;;;10.60;85.84
55466;BME280;41329;41.594;23.810;2022-12-16T16:09:37;95465.75;;;10.68;85.82
55466;BME280;41329;41.594;23.810;2022-12-16T16:12:23;95447.56;;;10.67;85.43
55466;BME280;41329;41.594;23.810;2022-12-16T16:15:11;95445.53;;;10.64;85.35
55466;BME280;41329;41.594;23.810;2022-12-16T16:18:09;95465.94;;;10.78;85.29